DW6111 Rossendale UK current weather conditions

sailwx.info

Wind from 217

Air temperature 2.8° C
Dewpoint 0.8° C

Last reported at 2019-Dec-14 17:01 UTC.
Time now 2019-Dec-14 18:03 UTC

Location: N 53°40' W 002°10'.
View on Google Maps.

See reports from other nearby stations

  
Tides and Currents Weather Stations Pressure Air Temp Water Temp Dewpoint Dewpoint Depression Visibility Wind Speed Wind Dir Waves Ship Positions
date/time (UTC)wind fromknots sea level pressurealtimeterstation pressurevisibilityair tempwater tempwave heightnotes
2019-Dec-14 17:01 217 2.8
2019-Dec-14 16:46 038 2.8
2019-Dec-14 16:31 071 2.8
2019-Dec-14 16:16 233 0 gusting 7 3.3
2019-Dec-14 16:03 069 0 gusting 6 3.3
2019-Dec-14 15:47 052 1 gusting 9 3.3
2019-Dec-14 15:31 053 0 gusting 12 2.8
2019-Dec-14 15:17 246 1 gusting 9 2.8
2019-Dec-14 15:01 300 1 gusting 8 2.8
2019-Dec-14 14:46 316 1 gusting 7 2.8
2019-Dec-14 14:30 065 2 gusting 13 2.8
2019-Dec-14 14:16 125 2 gusting 10 2.8
2019-Dec-14 14:00 058 3 gusting 12 2.8
2019-Dec-14 13:46 060 0 gusting 7 2.2
2019-Dec-14 13:30 171 1 gusting 8 2.8
2019-Dec-14 13:15 094 3 gusting 7 2.8
2019-Dec-14 13:00 302 0 gusting 5 2.2
2019-Dec-14 12:45 043 1 gusting 9 2.2
2019-Dec-14 12:30 037 1 gusting 10 2.8
2019-Dec-14 12:15 067 3 gusting 11 2.8
2019-Dec-14 12:00 058 1 gusting 7 3.3
2019-Dec-14 11:45 321 3 gusting 10 3.3
2019-Dec-14 11:30 063 3 gusting 12 2.8
2019-Dec-14 11:15 065 2 gusting 6 2.8
2019-Dec-14 11:00 032 1 gusting 12 3.3
2019-Dec-14 10:45 070 0 gusting 10 2.2
2019-Dec-14 10:30 079 0 gusting 4 1.7
2019-Dec-14 10:15 072 1 gusting 10 2.2
2019-Dec-14 10:02 057 1 gusting 7 3.3
2019-Dec-14 09:47 074 2 gusting 11 3.3
2019-Dec-14 09:32 054 0 gusting 2 2.8
2019-Dec-14 09:02 077 1 gusting 6 3.3
2019-Dec-14 08:48 276 0 gusting 6 3.3
2019-Dec-14 08:32 343 0 gusting 5 3.3
2019-Dec-14 08:16 044 2.8
2019-Dec-14 08:01 342 0 gusting 4 2.8
2019-Dec-14 07:47 255 0 gusting 6 2.8
2019-Dec-14 07:32 059 0 gusting 8 2.8
2019-Dec-14 07:16 084 1 gusting 10 2.8
2019-Dec-14 07:01 046 0 gusting 6 2.8
2019-Dec-14 06:49 144 1 gusting 6 2.8
2019-Dec-14 06:31 041 0 gusting 6 2.8
2019-Dec-14 06:16 067 1 gusting 8 2.2
2019-Dec-14 06:01 062 0 gusting 6 2.2
2019-Dec-14 05:45 093 1 gusting 7 2.2
2019-Dec-14 05:30 200 2 gusting 9 2.8
2019-Dec-14 05:16 089 2.2
2019-Dec-14 05:01 083 0 gusting 6 2.2
2019-Dec-14 04:46 220 0 gusting 5 2.2
2019-Dec-14 04:31 075 2.2
2019-Dec-14 04:17 271 0 gusting 6 2.8
2019-Dec-14 04:01 039 1 gusting 9 2.8
2019-Dec-14 03:45 058 0 gusting 5 2.2
2019-Dec-14 03:31 091 0 gusting 6 2.8
2019-Dec-14 03:16 240 0 gusting 6 2.8
2019-Dec-14 03:01 232 2.8
2019-Dec-14 02:45 223 0 gusting 7 2.8
2019-Dec-14 02:30 172 0 gusting 6 2.8
2019-Dec-14 02:15 052 2.2
2019-Dec-14 02:00 073 2.8
2019-Dec-14 01:45 291 1 gusting 6 2.8
2019-Dec-14 01:30 328 2.8
2019-Dec-14 01:15 045 1 gusting 9 2.8
2019-Dec-14 01:00 098 3.3
2019-Dec-14 00:45 089 3.3
2019-Dec-14 00:32 291 0 gusting 5 3.3
2019-Dec-14 00:30 077 2.8
2019-Dec-14 00:17 073 0 gusting 4 2.2
2019-Dec-14 00:01 324 0 gusting 6 2.2
2019-Dec-13 23:47 224 0 gusting 4 2.8
2019-Dec-13 23:33 305 3.3
2019-Dec-13 23:18 283 0 gusting 6 3.3
2019-Dec-13 23:01 125 2.8
2019-Dec-13 22:46 101 3.3
2019-Dec-13 22:31 056 3.3
2019-Dec-13 22:17 279 3.3
2019-Dec-13 22:01 030 0 gusting 4 3.9
2019-Dec-13 21:46 287 0 gusting 5 3.9
2019-Dec-13 21:32 070 0 gusting 6 3.9
2019-Dec-13 21:16 102 1 gusting 5 3.9
2019-Dec-13 21:01 049 0 gusting 9 3.9
2019-Dec-13 20:45 323 0 gusting 5 3.9
2019-Dec-13 20:31 292 0 gusting 5 3.9
2019-Dec-13 20:16 075 0 gusting 6 3.9
2019-Dec-13 20:00 079 0 gusting 5 3.9
2019-Dec-13 19:46 041 2 gusting 8 3.9
2019-Dec-13 19:32 330 3.9
2019-Dec-13 19:16 299 1 gusting 8 3.9
2019-Dec-13 19:01 356 3.9
2019-Dec-13 18:47 262 2 gusting 9 3.9
2019-Dec-13 18:30 295 2 gusting 8 3.9
2019-Dec-13 18:15 282 1 gusting 9 4.4
2019-Dec-13 18:00 277 0 gusting 5 4.4
2019-Dec-13 17:45 050 1 gusting 6 4.4
2019-Dec-13 17:30 072 4.4
2019-Dec-13 17:15 041 4.4
2019-Dec-13 17:00 009 4.4
2019-Dec-13 16:45 054 0 gusting 6 4.4
2019-Dec-13 16:30 263 1 gusting 7 4.4
2019-Dec-13 16:15 056 5.0
2019-Dec-13 16:00 029 1 gusting 6 5.0
2019-Dec-13 15:45 056 5.0
2019-Dec-13 15:30 248 5.0
2019-Dec-13 15:15 281 0 gusting 4 5.0
2019-Dec-13 15:00 339 5.0
2019-Dec-13 14:45 029 1 gusting 9 5.6
2019-Dec-13 14:31 259 1 gusting 8 5.6
2019-Dec-13 14:17 349 5.6
2019-Dec-13 14:02 006 0 gusting 7 5.6
2019-Dec-13 13:48 074 1 gusting 6 5.6
2019-Dec-13 13:31 250 1 gusting 9 5.6
2019-Dec-13 13:17 086 0 gusting 6 5.6
2019-Dec-13 13:02 193 5.6
2019-Dec-13 12:46 169 0 gusting 6 5.6
2019-Dec-13 12:32 316 0 gusting 6 5.6
2019-Dec-13 12:16 097 1 gusting 7 5.0
2019-Dec-13 12:02 062 1 gusting 9 5.0
2019-Dec-13 11:46 071 0 gusting 7 5.0
2019-Dec-13 11:31 042 0 gusting 9 5.0
2019-Dec-13 11:17 241 4.4
2019-Dec-13 11:02 191 4.4
2019-Dec-13 10:46 320 5.0
2019-Dec-13 10:31 108 0 gusting 7 5.0
2019-Dec-13 10:17 351 0 gusting 6 5.0
2019-Dec-13 10:01 117 0 gusting 6 5.0
2019-Dec-13 09:46 333 4.4
2019-Dec-13 09:30 326 4.4
2019-Dec-13 09:16 030 4.4
2019-Dec-13 09:01 014 0 gusting 6 4.4
2019-Dec-13 08:46 073 4.4
2019-Dec-13 08:31 006 4.4
2019-Dec-13 08:16 051 4.4
2019-Dec-13 08:01 034 4.4
2019-Dec-13 07:45 262 1 gusting 8 4.4
2019-Dec-13 07:31 250 0 gusting 5 4.4
2019-Dec-13 07:15 219 0 gusting 4 4.4
2019-Dec-13 07:00 230 4.4
2019-Dec-13 06:45 050 0 gusting 6 4.4
2019-Dec-13 06:30 047 4.4
2019-Dec-13 06:15 319 0 gusting 4 4.4
2019-Dec-13 06:00 015 0 gusting 7 4.4
2019-Dec-13 05:45 264 3.9
2019-Dec-13 05:32 006 3.9
2019-Dec-13 05:17 038 3.9
2019-Dec-13 04:46 285 3.9
2019-Dec-13 04:32 032 3.9
2019-Dec-13 04:18 257 4.4
2019-Dec-13 04:02 325 3.9
2019-Dec-13 03:47 274 4.4
2019-Dec-13 03:32 231 4.4
2019-Dec-13 03:16 017 4.4
2019-Dec-13 03:01 266 4.4
2019-Dec-13 02:48 325 4.4
2019-Dec-13 02:31 311 4.4
2019-Dec-13 02:16 316 4.4
2019-Dec-13 02:00 234 4.4
2019-Dec-13 01:31 039 4.4
2019-Dec-13 01:16 190 0 gusting 3 4.4
2019-Dec-13 01:01 118 4.4
2019-Dec-13 00:45 077 3.9
2019-Dec-13 00:32 077 4.4
2019-Dec-13 00:16 233 4.4
2019-Dec-13 00:01 228 5.0
2019-Dec-12 23:45 096 5.0
2019-Dec-12 23:31 091 5.0
2019-Dec-12 23:15 340 5.0
2019-Dec-12 23:01 004 5.0
2019-Dec-12 22:46 023 5.0
2019-Dec-12 22:30 109 5.0
2019-Dec-12 22:15 264 5.0
2019-Dec-12 22:00 295 5.0
2019-Dec-12 21:45 124 5.0
2019-Dec-12 21:30 083 5.0
2019-Dec-12 21:15 325 0 gusting 7 5.0
2019-Dec-12 21:00 103 0 gusting 7 5.0
2019-Dec-12 20:45 094 1 gusting 7 5.0
2019-Dec-12 20:32 034 0 gusting 8 5.6
2019-Dec-12 20:17 213 1 gusting 6 5.6
2019-Dec-12 20:02 075 0 gusting 6 5.6
2019-Dec-12 19:47 018 0 gusting 3 5.6
2019-Dec-12 19:32 145 5.6
2019-Dec-12 19:16 257 5.6
2019-Dec-12 19:01 329 5.6
2019-Dec-12 18:47 304 5.6
2019-Dec-12 18:31 041 5.0
2019-Dec-12 18:17 020 5.0
2019-Dec-12 18:02 094 0 gusting 5 5.0